Terminal Aerodrome Forecast
Issued by NWS Mt. Holly, NJ

Home | Current Version | Previous Version | Text Only | Print | Product List | Glossary On
Versions: 1 2 3 4 5 6 7 8 9 10 11 12 13 14 15 16 17 18 19 20 21 22 23 24 25 26 27 28 29 30 31 32 33 34 35 36 37 38 39 40
000
FTAK31 PANC 070646 AAA
TAFABE
TAF AMD
PABE 070646Z 0707/0806 01015KT P6SM VCSH FEW040 BKN060
      TEMPO 0707/0708 01015G25KT
     FM070800 01015G25KT P6SM FEW060 SCT120
     FM072000 36020G30KT P6SM SKC=

USA.gov is the U.S. government's official web portal to all federal, state and local government web resources and services.